sensor_id;sensor_type;location;lat;lon;timestamp;temperature;humidity
51902;DHT22;37929;53.218;6.548;2022-12-24T14:52:47;8.90;99.90
51902;DHT22;37929;53.218;6.548;2022-12-24T14:58:29;8.50;99.90
51902;DHT22;37929;53.218;6.548;2022-12-24T15:01:01;8.50;99.90
51902;DHT22;37929;53.218;6.548;2022-12-24T15:03:31;8.50;99.90
51902;DHT22;37929;53.218;6.548;2022-12-24T15:05:59;8.50;99.90
51902;DHT22;37929;53.218;6.548;2022-12-24T15:08:32;8.50;99.90
51902;DHT22;37929;53.218;6.548;2022-12-24T15:11:04;8.50;99.90
51902;DHT22;37929;53.218;6.548;2022-12-24T15:13:36;8.40;99.90
51902;DHT22;37929;53.218;6.548;2022-12-24T15:16:08;8.40;99.90
51902;DHT22;37929;53.218;6.548;2022-12-24T15:18:37;8.40;99.90
51902;DHT22;37929;53.218;6.548;2022-12-24T15:21:06;8.40;99.90
51902;DHT22;37929;53.218;6.548;2022-12-24T15:23:34;8.80;99.90
51902;DHT22;37929;53.218;6.548;2022-12-24T15:26:15;8.30;99.90
51902;DHT22;37929;53.218;6.548;2022-12-24T15:28:41;8.20;99.90
51902;DHT22;37929;53.218;6.548;2022-12-24T15:31:14;8.10;99.90
51902;DHT22;37929;53.218;6.548;2022-12-24T15:33:43;8.10;99.90
51902;DHT22;37929;53.218;6.548;2022-12-24T15:36:10;8.40;99.90
51902;DHT22;37929;53.218;6.548;2022-12-24T15:38:40;8.00;99.90
51902;DHT22;37929;53.218;6.548;2022-12-24T15:44:03;7.90;99.90
51902;DHT22;37929;53.218;6.548;2022-12-24T15:46:30;7.90;99.90
51902;DHT22;37929;53.218;6.548;2022-12-24T15:48:58;7.80;99.90
51902;DHT22;37929;53.218;6.548;2022-12-24T15:51:35;7.80;99.90
51902;DHT22;37929;53.218;6.548;2022-12-24T15:54:09;7.70;99.90
51902;DHT22;37929;53.218;6.548;2022-12-24T15:56:41;7.70;99.90
51902;DHT22;37929;53.218;6.548;2022-12-24T15:59:31;7.70;99.90
51902;DHT22;37929;53.218;6.548;2022-12-24T16:10:44;7.50;99.90
51902;DHT22;37929;53.218;6.548;2022-12-24T16:13:27;7.50;99.90
51902;DHT22;37929;53.218;6.548;2022-12-24T16:16:04;7.40;99.90
51902;DHT22;37929;53.218;6.548;2022-12-24T16:18:47;7.40;99.90
51902;DHT22;37929;53.218;6.548;2022-12-24T16:21:38;7.40;99.90
51902;DHT22;37929;53.218;6.548;2022-12-24T16:26:32;7.30;99.90
51902;DHT22;37929;53.218;6.548;2022-12-24T16:28:58;7.30;99.90
51902;DHT22;37929;53.218;6.548;2022-12-24T16:31:32;7.60;99.90
51902;DHT22;37929;53.218;6.548;2022-12-24T16:33:59;7.20;99.90
51902;DHT22;37929;53.218;6.548;2022-12-24T16:36:26;7.20;99.90
51902;DHT22;37929;53.218;6.548;2022-12-24T16:38:52;7.20;99.90
51902;DHT22;37929;53.218;6.548;2022-12-24T16:41:37;7.20;99.90
51902;DHT22;37929;53.218;6.548;2022-12-24T16:44:22;7.20;99.90
51902;DHT22;37929;53.218;6.548;2022-12-24T16:46:48;7.20;99.90
51902;DHT22;37929;53.218;6.548;2022-12-24T16:49:19;7.20;99.90
51902;DHT22;37929;53.218;6.548;2022-12-24T16:51:45;7.20;99.90
51902;DHT22;37929;53.218;6.548;2022-12-24T16:54:12;7.10;99.90
51902;DHT22;37929;53.218;6.548;2022-12-24T16:56:43;7.10;99.90
51902;DHT22;37929;53.218;6.548;2022-12-24T16:59:18;7.10;99.90
51902;DHT22;37929;53.218;6.548;2022-12-24T17:01:44;7.10;99.90
51902;DHT22;37929;53.218;6.548;2022-12-24T17:04:10;7.10;99.90
51902;DHT22;37929;53.218;6.548;2022-12-24T17:06:36;7.10;99.90
51902;DHT22;37929;53.218;6.548;2022-12-24T17:09:02;7.10;99.90
51902;DHT22;37929;53.218;6.548;2022-12-24T17:11:28;7.10;99.90
51902;DHT22;37929;53.218;6.548;2022-12-24T17:13:54;7.00;99.90
51902;DHT22;37929;53.218;6.548;2022-12-24T17:16:19;7.00;99.90
51902;DHT22;37929;53.218;6.548;2022-12-24T17:18:45;7.00;99.90
51902;DHT22;37929;53.218;6.548;2022-12-24T17:21:11;7.00;99.90
51902;DHT22;37929;53.218;6.548;2022-12-24T17:23:40;7.00;99.90
51902;DHT22;37929;53.218;6.548;2022-12-24T17:26:06;6.90;99.90
51902;DHT22;37929;53.218;6.548;2022-12-24T17:28:32;6.90;99.90
51902;DHT22;37929;53.218;6.548;2022-12-24T17:30:58;7.00;99.90
51902;DHT22;37929;53.218;6.548;2022-12-24T17:33:24;7.50;99.90
51902;DHT22;37929;53.218;6.548;2022-12-24T17:35:50;6.90;99.90
51902;DHT22;37929;53.218;6.548;2022-12-24T17:38:17;6.90;99.90
51902;DHT22;37929;53.218;6.548;2022-12-24T17:40:43;6.90;99.90
51902;DHT22;37929;53.218;6.548;2022-12-24T17:43:08;6.90;99.90
51902;DHT22;37929;53.218;6.548;2022-12-24T17:45:39;6.90;99.90
51902;DHT22;37929;53.218;6.548;2022-12-24T17:48:05;6.90;99.90
51902;DHT22;37929;53.218;6.548;2022-12-24T17:50:31;6.90;99.90
51902;DHT22;37929;53.218;6.548;2022-12-24T17:52:57;6.90;99.90
51902;DHT22;37929;53.218;6.548;2022-12-24T17:55:22;6.90;99.90
51902;DHT22;37929;53.218;6.548;2022-12-24T17:57:51;6.90;99.90
51902;DHT22;37929;53.218;6.548;2022-12-24T18:00:17;6.80;99.90
51902;DHT22;37929;53.218;6.548;2022-12-24T18:02:43;6.80;99.90
51902;DHT22;37929;53.218;6.548;2022-12-24T18:05:09;6.80;99.90
51902;DHT22;37929;53.218;6.548;2022-12-24T18:07:34;6.80;99.90
51902;DHT22;37929;53.218;6.548;2022-12-24T18:10:00;6.80;99.90
51902;DHT22;37929;53.218;6.548;2022-12-24T18:12:26;6.70;99.90
51902;DHT22;37929;53.218;6.548;2022-12-24T18:14:52;6.90;99.90
51902;DHT22;37929;53.218;6.548;2022-12-24T18:17:17;6.70;99.90
51902;DHT22;37929;53.218;6.548;2022-12-24T18:19:43;6.70;99.90
51902;DHT22;37929;53.218;6.548;2022-12-24T18:22:09;6.70;99.90
51902;DHT22;37929;53.218;6.548;2022-12-24T18:24:34;6.60;99.90
51902;DHT22;37929;53.218;6.548;2022-12-24T18:27:00;6.60;99.90
51902;DHT22;37929;53.218;6.548;2022-12-24T18:29:27;6.60;99.90
51902;DHT22;37929;53.218;6.548;2022-12-24T18:31:52;6.60;99.90
51902;DHT22;37929;53.218;6.548;2022-12-24T18:34:18;6.50;99.90
51902;DHT22;37929;53.218;6.548;2022-12-24T18:36:44;6.50;99.90
51902;DHT22;37929;53.218;6.548;2022-12-24T18:39:09;6.50;99.90
51902;DHT22;37929;53.218;6.548;2022-12-24T18:41:35;6.90;99.90
51902;DHT22;37929;53.218;6.548;2022-12-24T18:44:01;6.50;99.90
51902;DHT22;37929;53.218;6.548;2022-12-24T18:46:30;6.80;99.90
51902;DHT22;37929;53.218;6.548;2022-12-24T18:48:57;6.50;99.90
51902;DHT22;37929;53.218;6.548;2022-12-24T18:51:27;6.40;99.90
51902;DHT22;37929;53.218;6.548;2022-12-24T18:53:53;6.40;99.90
51902;DHT22;37929;53.218;6.548;2022-12-24T18:56:21;6.40;99.90
51902;DHT22;37929;53.218;6.548;2022-12-24T18:58:48;6.40;99.90
51902;DHT22;37929;53.218;6.548;2022-12-24T19:01:17;6.40;99.90
51902;DHT22;37929;53.218;6.548;2022-12-24T19:03:43;6.40;99.90
51902;DHT22;37929;53.218;6.548;2022-12-24T19:06:09;6.40;99.90
51902;DHT22;37929;53.218;6.548;2022-12-24T19:08:36;6.40;99.90
51902;DHT22;37929;53.218;6.548;2022-12-24T19:11:02;6.30;99.90
51902;DHT22;37929;53.218;6.548;2022-12-24T19:13:28;6.30;99.90
51902;DHT22;37929;53.218;6.548;2022-12-24T19:15:54;6.30;99.90
51902;DHT22;37929;53.218;6.548;2022-12-24T19:18:20;6.30;99.90
51902;DHT22;37929;53.218;6.548;2022-12-24T19:20:46;6.30;99.90
51902;DHT22;37929;53.218;6.548;2022-12-24T19:23:11;6.20;99.90
51902;DHT22;37929;53.218;6.548;2022-12-24T19:25:37;6.20;99.90
51902;DHT22;37929;53.218;6.548;2022-12-24T19:28:03;6.90;99.90
51902;DHT22;37929;53.218;6.548;2022-12-24T19:30:38;6.20;99.90
51902;DHT22;37929;53.218;6.548;2022-12-24T19:33:05;6.20;99.90
51902;DHT22;37929;53.218;6.548;2022-12-24T19:35:31;6.20;99.90
51902;DHT22;37929;53.218;6.548;2022-12-24T19:37:57;6.20;99.90
51902;DHT22;37929;53.218;6.548;2022-12-24T19:40:23;6.20;99.90
51902;DHT22;37929;53.218;6.548;2022-12-24T19:42:49;6.30;99.90
51902;DHT22;37929;53.218;6.548;2022-12-24T19:45:20;6.20;99.90
51902;DHT22;37929;53.218;6.548;2022-12-24T19:47:47;6.20;99.90
51902;DHT22;37929;53.218;6.548;2022-12-24T19:50:13;6.20;99.90
51902;DHT22;37929;53.218;6.548;2022-12-24T19:52:39;6.20;99.90
51902;DHT22;37929;53.218;6.548;2022-12-24T19:55:06;6.20;99.90
51902;DHT22;37929;53.218;6.548;2022-12-24T19:57:32;6.20;99.90
51902;DHT22;37929;53.218;6.548;2022-12-24T19:59:57;6.10;99.90
51902;DHT22;37929;53.218;6.548;2022-12-24T20:02:23;6.10;99.90
51902;DHT22;37929;53.218;6.548;2022-12-24T20:04:50;6.10;99.90
51902;DHT22;37929;53.218;6.548;2022-12-24T20:07:16;6.10;99.90
51902;DHT22;37929;53.218;6.548;2022-12-24T20:09:41;6.10;99.90
51902;DHT22;37929;53.218;6.548;2022-12-24T20:12:08;6.10;99.90
51902;DHT22;37929;53.218;6.548;2022-12-24T20:14:33;6.10;99.90
51902;DHT22;37929;53.218;6.548;2022-12-24T20:16:59;6.10;99.90
51902;DHT22;37929;53.218;6.548;2022-12-24T20:19:25;6.10;99.90
51902;DHT22;37929;53.218;6.548;2022-12-24T20:21:51;6.10;99.90
51902;DHT22;37929;53.218;6.548;2022-12-24T20:24:16;6.00;99.90
51902;DHT22;37929;53.218;6.548;2022-12-24T20:26:42;6.00;99.90
51902;DHT22;37929;53.218;6.548;2022-12-24T20:29:09;6.00;99.90
51902;DHT22;37929;53.218;6.548;2022-12-24T20:31:36;5.90;99.90
51902;DHT22;37929;53.218;6.548;2022-12-24T20:34:03;5.90;99.90
51902;DHT22;37929;53.218;6.548;2022-12-24T20:36:30;5.90;99.90
51902;DHT22;37929;53.218;6.548;2022-12-24T20:38:57;5.90;99.90
51902;DHT22;37929;53.218;6.548;2022-12-24T20:41:25;5.80;99.90
51902;DHT22;37929;53.218;6.548;2022-12-24T20:43:51;5.90;99.90
51902;DHT22;37929;53.218;6.548;2022-12-24T20:46:21;5.80;99.90
51902;DHT22;37929;53.218;6.548;2022-12-24T20:48:48;5.80;99.90
51902;DHT22;37929;53.218;6.548;2022-12-24T20:51:20;5.80;99.90
51902;DHT22;37929;53.218;6.548;2022-12-24T20:53:45;6.50;99.90
51902;DHT22;37929;53.218;6.548;2022-12-24T20:56:13;5.70;99.90
51902;DHT22;37929;53.218;6.548;2022-12-24T20:58:39;5.70;99.90
51902;DHT22;37929;53.218;6.548;2022-12-24T21:01:14;5.70;99.90
51902;DHT22;37929;53.218;6.548;2022-12-24T21:03:41;5.70;99.90
51902;DHT22;37929;53.218;6.548;2022-12-24T21:06:07;5.70;99.90
51902;DHT22;37929;53.218;6.548;2022-12-24T21:08:33;5.70;99.90
51902;DHT22;37929;53.218;6.548;2022-12-24T21:10:58;5.60;99.90
51902;DHT22;37929;53.218;6.548;2022-12-24T21:13:56;5.60;99.90
51902;DHT22;37929;53.218;6.548;2022-12-24T21:16:22;5.60;99.90
51902;DHT22;37929;53.218;6.548;2022-12-24T21:18:48;5.60;99.90
51902;DHT22;37929;53.218;6.548;2022-12-24T21:21:15;5.60;99.90
51902;DHT22;37929;53.218;6.548;2022-12-24T21:23:41;5.60;99.90
51902;DHT22;37929;53.218;6.548;2022-12-24T21:26:06;5.60;99.90
51902;DHT22;37929;53.218;6.548;2022-12-24T21:28:32;5.60;99.90
51902;DHT22;37929;53.218;6.548;2022-12-24T21:30:58;5.60;99.90
51902;DHT22;37929;53.218;6.548;2022-12-24T21:33:24;5.60;99.90
51902;DHT22;37929;53.218;6.548;2022-12-24T21:35:56;5.60;99.90
51902;DHT22;37929;53.218;6.548;2022-12-24T21:38:22;5.60;99.90
51902;DHT22;37929;53.218;6.548;2022-12-24T21:40:59;5.70;99.90
51902;DHT22;37929;53.218;6.548;2022-12-24T21:43:25;5.60;99.90
51902;DHT22;37929;53.218;6.548;2022-12-24T21:45:51;5.60;99.90
51902;DHT22;37929;53.218;6.548;2022-12-24T21:48:18;5.60;99.90
51902;DHT22;37929;53.218;6.548;2022-12-24T21:51:02;5.90;99.90
51902;DHT22;37929;53.218;6.548;2022-12-24T21:53:28;5.60;99.90
51902;DHT22;37929;53.218;6.548;2022-12-24T21:56:15;5.60;99.90
51902;DHT22;37929;53.218;6.548;2022-12-24T21:58:41;5.60;99.90
51902;DHT22;37929;53.218;6.548;2022-12-24T22:01:10;5.60;99.90
51902;DHT22;37929;53.218;6.548;2022-12-24T22:03:37;5.60;99.90
51902;DHT22;37929;53.218;6.548;2022-12-24T22:06:04;5.60;99.90
51902;DHT22;37929;53.218;6.548;2022-12-24T22:08:30;5.70;99.90
51902;DHT22;37929;53.218;6.548;2022-12-24T22:11:15;5.80;99.90
51902;DHT22;37929;53.218;6.548;2022-12-24T22:13:59;5.80;99.90
51902;DHT22;37929;53.218;6.548;2022-12-24T22:16:26;5.90;99.90
51902;DHT22;37929;53.218;6.548;2022-12-24T22:18:52;6.00;99.90
51902;DHT22;37929;53.218;6.548;2022-12-24T22:21:18;6.00;99.90
51902;DHT22;37929;53.218;6.548;2022-12-24T22:23:44;6.10;99.90
51902;DHT22;37929;53.218;6.548;2022-12-24T22:26:19;6.10;99.90
51902;DHT22;37929;53.218;6.548;2022-12-24T22:28:45;6.10;99.90
51902;DHT22;37929;53.218;6.548;2022-12-24T22:31:22;6.10;99.90
51902;DHT22;37929;53.218;6.548;2022-12-24T22:33:48;6.20;99.90
51902;DHT22;37929;53.218;6.548;2022-12-24T22:36:14;6.40;99.90
51902;DHT22;37929;53.218;6.548;2022-12-24T22:38:44;6.30;99.90
51902;DHT22;37929;53.218;6.548;2022-12-24T22:41:11;6.30;99.90
51902;DHT22;37929;53.218;6.548;2022-12-24T22:43:38;6.40;99.90
51902;DHT22;37929;53.218;6.548;2022-12-24T22:46:13;6.40;99.90
51902;DHT22;37929;53.218;6.548;2022-12-24T22:48:40;6.40;99.90
51902;DHT22;37929;53.218;6.548;2022-12-24T22:51:11;6.40;99.90
51902;DHT22;37929;53.218;6.548;2022-12-24T22:53:37;6.40;99.90
51902;DHT22;37929;53.218;6.548;2022-12-24T22:56:04;6.40;99.90
51902;DHT22;37929;53.218;6.548;2022-12-24T22:58:30;6.40;99.90
51902;DHT22;37929;53.218;6.548;2022-12-24T23:00:56;6.40;99.90
51902;DHT22;37929;53.218;6.548;2022-12-24T23:03:22;6.30;99.90
51902;DHT22;37929;53.218;6.548;2022-12-24T23:06:00;6.20;99.90
51902;DHT22;37929;53.218;6.548;2022-12-24T23:08:27;6.50;99.90
51902;DHT22;37929;53.218;6.548;2022-12-24T23:11:02;6.30;99.90
51902;DHT22;37929;53.218;6.548;2022-12-24T23:13:28;6.20;99.90
51902;DHT22;37929;53.218;6.548;2022-12-24T23:16:12;6.20;99.90
51902;DHT22;37929;53.218;6.548;2022-12-24T23:18:38;6.20;99.90
51902;DHT22;37929;53.218;6.548;2022-12-24T23:21:06;6.20;99.90
51902;DHT22;37929;53.218;6.548;2022-12-24T23:23:32;6.20;99.90
51902;DHT22;37929;53.218;6.548;2022-12-24T23:26:09;6.20;99.90
51902;DHT22;37929;53.218;6.548;2022-12-24T23:28:36;6.20;99.90
51902;DHT22;37929;53.218;6.548;2022-12-24T23:31:02;6.20;99.90
51902;DHT22;37929;53.218;6.548;2022-12-24T23:33:29;6.20;99.90
51902;DHT22;37929;53.218;6.548;2022-12-24T23:35:55;6.70;99.90
51902;DHT22;37929;53.218;6.548;2022-12-24T23:38:28;6.20;99.90
51902;DHT22;37929;53.218;6.548;2022-12-24T23:40:55;6.20;99.90
51902;DHT22;37929;53.218;6.548;2022-12-24T23:43:21;6.20;99.90
51902;DHT22;37929;53.218;6.548;2022-12-24T23:45:51;6.10;99.90
51902;DHT22;37929;53.218;6.548;2022-12-24T23:48:17;6.10;99.90
51902;DHT22;37929;53.218;6.548;2022-12-24T23:50:44;6.10;99.90
51902;DHT22;37929;53.218;6.548;2022-12-24T23:53:11;6.10;99.90
51902;DHT22;37929;53.218;6.548;2022-12-24T23:55:38;6.10;99.90
51902;DHT22;37929;53.218;6.548;2022-12-24T23:58:05;6.20;99.90
